sensor_id;sensor_type;location;lat;lon;timestamp;P1;durP1;ratioP1;P2;durP2;ratioP2
297;SDS011;133;49.626;9.680;2023-10-13T00:01:55;11.23;;;7.87;;
297;SDS011;133;49.626;9.680;2023-10-13T00:04:24;15.10;;;8.27;;
297;SDS011;133;49.626;9.680;2023-10-13T00:06:51;13.50;;;8.20;;
297;SDS011;133;49.626;9.680;2023-10-13T00:09:17;13.63;;;8.43;;
297;SDS011;133;49.626;9.680;2023-10-13T00:11:45;11.53;;;8.70;;
297;SDS011;133;49.626;9.680;2023-10-13T00:14:14;13.30;;;7.47;;
297;SDS011;133;49.626;9.680;2023-10-13T00:16:42;11.93;;;7.50;;
297;SDS011;133;49.626;9.680;2023-10-13T00:19:08;14.00;;;8.33;;
297;SDS011;133;49.626;9.680;2023-10-13T00:21:38;14.43;;;9.50;;
297;SDS011;133;49.626;9.680;2023-10-13T00:24:04;11.17;;;8.17;;
297;SDS011;133;49.626;9.680;2023-10-13T00:26:37;16.50;;;8.70;;
297;SDS011;133;49.626;9.680;2023-10-13T00:29:03;13.93;;;8.43;;
297;SDS011;133;49.626;9.680;2023-10-13T00:31:38;11.63;;;7.87;;
297;SDS011;133;49.626;9.680;2023-10-13T00:34:07;15.00;;;8.90;;
297;SDS011;133;49.626;9.680;2023-10-13T00:36:52;11.43;;;8.30;;
297;SDS011;133;49.626;9.680;2023-10-13T00:39:36;10.80;;;7.73;;
297;SDS011;133;49.626;9.680;2023-10-13T00:42:05;16.87;;;7.90;;
297;SDS011;133;49.626;9.680;2023-10-13T00:44:43;12.60;;;8.50;;
297;SDS011;133;49.626;9.680;2023-10-13T00:47:13;17.73;;;8.70;;
297;SDS011;133;49.626;9.680;2023-10-13T00:50:02;10.83;;;8.57;;
297;SDS011;133;49.626;9.680;2023-10-13T00:52:29;14.83;;;8.10;;
297;SDS011;133;49.626;9.680;2023-10-13T00:54:57;14.53;;;8.60;;
297;SDS011;133;49.626;9.680;2023-10-13T00:57:25;12.63;;;8.23;;
297;SDS011;133;49.626;9.680;2023-10-13T00:59:57;10.50;;;7.93;;
297;SDS011;133;49.626;9.680;2023-10-13T01:02:23;11.23;;;8.13;;
297;SDS011;133;49.626;9.680;2023-10-13T01:05:01;12.03;;;8.27;;
297;SDS011;133;49.626;9.680;2023-10-13T01:07:30;13.00;;;7.70;;
297;SDS011;133;49.626;9.680;2023-10-13T01:09:55;14.80;;;8.77;;
297;SDS011;133;49.626;9.680;2023-10-13T01:12:21;11.57;;;8.50;;
297;SDS011;133;49.626;9.680;2023-10-13T01:14:50;15.30;;;8.10;;
297;SDS011;133;49.626;9.680;2023-10-13T01:17:15;11.40;;;8.60;;
297;SDS011;133;49.626;9.680;2023-10-13T01:19:41;13.27;;;7.83;;
297;SDS011;133;49.626;9.680;2023-10-13T01:22:11;16.20;;;7.60;;
297;SDS011;133;49.626;9.680;2023-10-13T01:24:37;13.23;;;8.50;;
297;SDS011;133;49.626;9.680;2023-10-13T01:27:03;14.37;;;8.67;;
297;SDS011;133;49.626;9.680;2023-10-13T01:29:46;14.00;;;8.73;;
297;SDS011;133;49.626;9.680;2023-10-13T01:32:21;11.90;;;8.63;;
297;SDS011;133;49.626;9.680;2023-10-13T01:34:47;9.90;;;7.70;;
297;SDS011;133;49.626;9.680;2023-10-13T01:37:14;12.03;;;7.77;;
297;SDS011;133;49.626;9.680;2023-10-13T01:39:41;13.87;;;8.60;;
297;SDS011;133;49.626;9.680;2023-10-13T01:42:07;13.93;;;8.43;;
297;SDS011;133;49.626;9.680;2023-10-13T01:44:32;14.23;;;8.63;;
297;SDS011;133;49.626;9.680;2023-10-13T01:46:58;15.43;;;9.20;;
297;SDS011;133;49.626;9.680;2023-10-13T01:49:31;14.80;;;9.30;;
297;SDS011;133;49.626;9.680;2023-10-13T01:52:12;18.20;;;9.90;;
297;SDS011;133;49.626;9.680;2023-10-13T01:54:41;16.60;;;9.67;;
297;SDS011;133;49.626;9.680;2023-10-13T01:57:09;14.73;;;8.93;;
297;SDS011;133;49.626;9.680;2023-10-13T01:59:45;18.63;;;10.03;;
297;SDS011;133;49.626;9.680;2023-10-13T02:02:13;15.80;;;10.30;;
297;SDS011;133;49.626;9.680;2023-10-13T02:04:39;15.20;;;10.23;;
297;SDS011;133;49.626;9.680;2023-10-13T02:07:20;18.73;;;10.20;;
297;SDS011;133;49.626;9.680;2023-10-13T02:09:45;15.10;;;9.57;;
297;SDS011;133;49.626;9.680;2023-10-13T02:12:12;16.63;;;10.93;;
297;SDS011;133;49.626;9.680;2023-10-13T02:14:40;15.20;;;9.73;;
297;SDS011;133;49.626;9.680;2023-10-13T02:17:07;13.43;;;10.27;;
297;SDS011;133;49.626;9.680;2023-10-13T02:19:39;18.13;;;10.13;;
297;SDS011;133;49.626;9.680;2023-10-13T02:22:09;17.20;;;10.60;;
297;SDS011;133;49.626;9.680;2023-10-13T02:24:35;16.67;;;10.83;;
297;SDS011;133;49.626;9.680;2023-10-13T02:27:05;17.20;;;11.27;;
297;SDS011;133;49.626;9.680;2023-10-13T02:29:42;16.90;;;10.87;;
297;SDS011;133;49.626;9.680;2023-10-13T02:32:11;15.70;;;10.80;;
297;SDS011;133;49.626;9.680;2023-10-13T02:34:44;16.00;;;10.20;;
297;SDS011;133;49.626;9.680;2023-10-13T02:37:10;16.53;;;10.67;;
297;SDS011;133;49.626;9.680;2023-10-13T02:39:37;15.77;;;10.90;;
297;SDS011;133;49.626;9.680;2023-10-13T02:42:06;17.27;;;10.33;;
297;SDS011;133;49.626;9.680;2023-10-13T02:44:35;17.27;;;11.07;;
297;SDS011;133;49.626;9.680;2023-10-13T02:47:02;16.60;;;10.70;;
297;SDS011;133;49.626;9.680;2023-10-13T02:49:38;17.10;;;10.30;;
297;SDS011;133;49.626;9.680;2023-10-13T02:52:08;17.73;;;11.47;;
297;SDS011;133;49.626;9.680;2023-10-13T02:54:35;15.97;;;10.80;;
297;SDS011;133;49.626;9.680;2023-10-13T02:57:21;15.60;;;11.30;;
297;SDS011;133;49.626;9.680;2023-10-13T02:59:48;21.40;;;10.33;;
297;SDS011;133;49.626;9.680;2023-10-13T03:02:21;16.37;;;11.43;;
297;SDS011;133;49.626;9.680;2023-10-13T03:04:57;16.90;;;11.70;;
297;SDS011;133;49.626;9.680;2023-10-13T03:07:34;17.07;;;11.57;;
297;SDS011;133;49.626;9.680;2023-10-13T03:10:03;21.67;;;10.63;;
297;SDS011;133;49.626;9.680;2023-10-13T03:12:35;17.67;;;10.73;;
297;SDS011;133;49.626;9.680;2023-10-13T03:15:05;18.93;;;11.23;;
297;SDS011;133;49.626;9.680;2023-10-13T03:17:40;18.87;;;10.80;;
297;SDS011;133;49.626;9.680;2023-10-13T03:20:10;22.77;;;12.70;;
297;SDS011;133;49.626;9.680;2023-10-13T03:22:40;15.30;;;10.70;;
297;SDS011;133;49.626;9.680;2023-10-13T03:25:09;12.87;;;10.30;;
297;SDS011;133;49.626;9.680;2023-10-13T03:27:48;15.67;;;11.20;;
297;SDS011;133;49.626;9.680;2023-10-13T03:30:13;17.03;;;10.93;;
297;SDS011;133;49.626;9.680;2023-10-13T03:32:40;16.57;;;10.27;;
297;SDS011;133;49.626;9.680;2023-10-13T03:35:10;14.10;;;10.10;;
297;SDS011;133;49.626;9.680;2023-10-13T03:37:38;20.87;;;10.87;;
297;SDS011;133;49.626;9.680;2023-10-13T03:40:05;18.30;;;10.90;;
297;SDS011;133;49.626;9.680;2023-10-13T03:42:41;12.93;;;10.33;;
297;SDS011;133;49.626;9.680;2023-10-13T03:45:06;17.33;;;11.60;;
297;SDS011;133;49.626;9.680;2023-10-13T03:47:35;17.53;;;11.73;;
297;SDS011;133;49.626;9.680;2023-10-13T03:50:03;17.70;;;11.50;;
297;SDS011;133;49.626;9.680;2023-10-13T03:52:54;16.90;;;11.17;;
297;SDS011;133;49.626;9.680;2023-10-13T03:55:23;17.53;;;11.30;;
297;SDS011;133;49.626;9.680;2023-10-13T03:58:01;17.40;;;11.20;;
297;SDS011;133;49.626;9.680;2023-10-13T04:00:28;19.20;;;10.93;;
297;SDS011;133;49.626;9.680;2023-10-13T04:02:54;15.43;;;10.70;;
297;SDS011;133;49.626;9.680;2023-10-13T04:05:29;20.07;;;12.13;;
297;SDS011;133;49.626;9.680;2023-10-13T04:08:08;24.23;;;10.80;;
297;SDS011;133;49.626;9.680;2023-10-13T04:10:52;13.90;;;9.73;;
297;SDS011;133;49.626;9.680;2023-10-13T04:13:19;15.27;;;9.60;;
297;SDS011;133;49.626;9.680;2023-10-13T04:16:04;14.93;;;10.47;;
297;SDS011;133;49.626;9.680;2023-10-13T04:18:40;17.40;;;11.20;;
297;SDS011;133;49.626;9.680;2023-10-13T04:21:28;16.83;;;10.20;;
297;SDS011;133;49.626;9.680;2023-10-13T04:24:03;15.33;;;10.30;;
297;SDS011;133;49.626;9.680;2023-10-13T04:26:42;12.43;;;10.20;;
297;SDS011;133;49.626;9.680;2023-10-13T04:29:28;15.50;;;11.07;;
297;SDS011;133;49.626;9.680;2023-10-13T04:32:12;14.90;;;10.00;;
297;SDS011;133;49.626;9.680;2023-10-13T04:34:53;19.37;;;10.83;;
297;SDS011;133;49.626;9.680;2023-10-13T04:37:33;15.73;;;10.30;;
297;SDS011;133;49.626;9.680;2023-10-13T04:40:13;11.03;;;9.87;;
297;SDS011;133;49.626;9.680;2023-10-13T04:42:39;15.30;;;10.43;;
297;SDS011;133;49.626;9.680;2023-10-13T04:45:15;16.30;;;10.70;;
297;SDS011;133;49.626;9.680;2023-10-13T04:48:00;15.83;;;10.30;;
297;SDS011;133;49.626;9.680;2023-10-13T04:50:45;15.00;;;9.97;;
297;SDS011;133;49.626;9.680;2023-10-13T04:53:15;13.03;;;10.00;;
297;SDS011;133;49.626;9.680;2023-10-13T04:56:20;15.03;;;10.77;;
297;SDS011;133;49.626;9.680;2023-10-13T04:59:04;20.10;;;10.03;;
297;SDS011;133;49.626;9.680;2023-10-13T05:01:48;15.07;;;10.20;;
297;SDS011;133;49.626;9.680;2023-10-13T05:04:46;13.93;;;9.60;;
297;SDS011;133;49.626;9.680;2023-10-13T05:07:37;14.63;;;10.43;;
297;SDS011;133;49.626;9.680;2023-10-13T05:10:22;16.30;;;10.37;;
297;SDS011;133;49.626;9.680;2023-10-13T05:13:07;13.20;;;9.30;;
297;SDS011;133;49.626;9.680;2023-10-13T05:15:51;15.43;;;10.20;;
297;SDS011;133;49.626;9.680;2023-10-13T05:18:35;17.77;;;10.33;;
297;SDS011;133;49.626;9.680;2023-10-13T05:21:19;13.70;;;9.63;;
297;SDS011;133;49.626;9.680;2023-10-13T05:24:04;15.70;;;10.10;;
297;SDS011;133;49.626;9.680;2023-10-13T05:26:49;16.80;;;10.03;;
297;SDS011;133;49.626;9.680;2023-10-13T05:29:33;13.47;;;9.23;;
297;SDS011;133;49.626;9.680;2023-10-13T05:32:17;14.30;;;9.10;;
297;SDS011;133;49.626;9.680;2023-10-13T05:35:02;13.43;;;9.00;;
297;SDS011;133;49.626;9.680;2023-10-13T05:37:46;15.10;;;9.70;;
297;SDS011;133;49.626;9.680;2023-10-13T05:40:30;13.93;;;8.73;;
297;SDS011;133;49.626;9.680;2023-10-13T05:43:14;14.60;;;8.57;;
297;SDS011;133;49.626;9.680;2023-10-13T05:46:02;15.53;;;9.37;;
297;SDS011;133;49.626;9.680;2023-10-13T05:48:47;13.00;;;8.07;;
297;SDS011;133;49.626;9.680;2023-10-13T05:51:25;12.03;;;8.90;;
297;SDS011;133;49.626;9.680;2023-10-13T05:54:08;15.63;;;9.00;;
297;SDS011;133;49.626;9.680;2023-10-13T05:56:35;14.20;;;9.00;;
297;SDS011;133;49.626;9.680;2023-10-13T05:59:19;11.80;;;8.97;;
297;SDS011;133;49.626;9.680;2023-10-13T06:02:03;16.63;;;9.57;;
297;SDS011;133;49.626;9.680;2023-10-13T06:04:48;12.70;;;7.50;;
297;SDS011;133;49.626;9.680;2023-10-13T06:07:32;9.87;;;7.83;;
297;SDS011;133;49.626;9.680;2023-10-13T06:10:16;12.93;;;8.43;;
297;SDS011;133;49.626;9.680;2023-10-13T06:13:00;14.57;;;9.00;;
297;SDS011;133;49.626;9.680;2023-10-13T06:15:44;13.00;;;8.70;;
297;SDS011;133;49.626;9.680;2023-10-13T06:18:28;9.17;;;7.87;;
297;SDS011;133;49.626;9.680;2023-10-13T06:21:12;13.73;;;9.17;;
297;SDS011;133;49.626;9.680;2023-10-13T06:23:56;11.03;;;8.07;;
297;SDS011;133;49.626;9.680;2023-10-13T06:26:40;14.90;;;8.60;;
297;SDS011;133;49.626;9.680;2023-10-13T06:29:25;13.67;;;8.03;;
297;SDS011;133;49.626;9.680;2023-10-13T06:31:50;12.90;;;8.87;;
297;SDS011;133;49.626;9.680;2023-10-13T06:34:16;11.40;;;8.23;;
297;SDS011;133;49.626;9.680;2023-10-13T06:36:45;12.60;;;8.80;;
297;SDS011;133;49.626;9.680;2023-10-13T06:39:12;11.97;;;8.20;;
297;SDS011;133;49.626;9.680;2023-10-13T06:41:56;13.73;;;7.80;;
297;SDS011;133;49.626;9.680;2023-10-13T06:44:21;17.07;;;8.73;;
297;SDS011;133;49.626;9.680;2023-10-13T06:46:47;10.57;;;8.07;;
297;SDS011;133;49.626;9.680;2023-10-13T06:49:15;15.07;;;9.20;;
297;SDS011;133;49.626;9.680;2023-10-13T06:51:43;12.67;;;8.17;;
297;SDS011;133;49.626;9.680;2023-10-13T06:54:11;12.47;;;7.93;;
297;SDS011;133;49.626;9.680;2023-10-13T06:56:44;15.27;;;8.57;;
297;SDS011;133;49.626;9.680;2023-10-13T06:59:11;12.50;;;8.47;;
297;SDS011;133;49.626;9.680;2023-10-13T07:01:39;10.13;;;7.70;;
297;SDS011;133;49.626;9.680;2023-10-13T07:04:07;12.40;;;8.50;;
297;SDS011;133;49.626;9.680;2023-10-13T07:06:42;16.77;;;8.10;;
297;SDS011;133;49.626;9.680;2023-10-13T07:09:17;11.90;;;8.40;;
297;SDS011;133;49.626;9.680;2023-10-13T07:12:04;12.57;;;7.97;;
297;SDS011;133;49.626;9.680;2023-10-13T07:14:47;10.60;;;7.30;;
297;SDS011;133;49.626;9.680;2023-10-13T07:17:16;13.90;;;8.90;;
297;SDS011;133;49.626;9.680;2023-10-13T07:19:49;12.33;;;8.80;;
297;SDS011;133;49.626;9.680;2023-10-13T07:22:24;9.60;;;7.90;;
297;SDS011;133;49.626;9.680;2023-10-13T07:24:52;12.33;;;7.90;;
297;SDS011;133;49.626;9.680;2023-10-13T07:27:21;10.57;;;7.30;;
297;SDS011;133;49.626;9.680;2023-10-13T07:29:49;11.10;;;7.93;;
297;SDS011;133;49.626;9.680;2023-10-13T07:32:21;14.20;;;8.30;;
297;SDS011;133;49.626;9.680;2023-10-13T07:34:52;10.90;;;7.00;;
297;SDS011;133;49.626;9.680;2023-10-13T07:37:21;11.27;;;8.10;;
297;SDS011;133;49.626;9.680;2023-10-13T07:39:50;13.87;;;7.60;;
297;SDS011;133;49.626;9.680;2023-10-13T07:42:16;8.63;;;7.23;;
297;SDS011;133;49.626;9.680;2023-10-13T07:44:44;13.47;;;7.47;;
297;SDS011;133;49.626;9.680;2023-10-13T07:47:13;12.10;;;7.87;;
297;SDS011;133;49.626;9.680;2023-10-13T07:49:39;13.50;;;7.27;;
297;SDS011;133;49.626;9.680;2023-10-13T07:52:09;10.93;;;7.30;;
297;SDS011;133;49.626;9.680;2023-10-13T07:54:45;10.00;;;7.20;;
297;SDS011;133;49.626;9.680;2023-10-13T07:57:17;13.30;;;6.53;;
297;SDS011;133;49.626;9.680;2023-10-13T07:59:43;11.87;;;7.33;;
297;SDS011;133;49.626;9.680;2023-10-13T08:02:15;12.10;;;7.00;;
297;SDS011;133;49.626;9.680;2023-10-13T08:05:00;11.00;;;7.23;;
297;SDS011;133;49.626;9.680;2023-10-13T08:07:26;10.70;;;7.30;;
297;SDS011;133;49.626;9.680;2023-10-13T08:09:53;10.10;;;7.23;;
297;SDS011;133;49.626;9.680;2023-10-13T08:12:19;9.97;;;6.83;;
297;SDS011;133;49.626;9.680;2023-10-13T08:14:48;13.63;;;6.70;;
297;SDS011;133;49.626;9.680;2023-10-13T08:17:13;13.40;;;7.03;;
297;SDS011;133;49.626;9.680;2023-10-13T08:19:39;9.90;;;6.27;;
297;SDS011;133;49.626;9.680;2023-10-13T08:22:08;11.93;;;7.10;;
297;SDS011;133;49.626;9.680;2023-10-13T08:24:43;10.00;;;6.40;;
297;SDS011;133;49.626;9.680;2023-10-13T08:27:09;10.10;;;6.90;;
297;SDS011;133;49.626;9.680;2023-10-13T08:29:54;8.70;;;6.40;;
297;SDS011;133;49.626;9.680;2023-10-13T08:32:23;9.03;;;6.20;;
297;SDS011;133;49.626;9.680;2023-10-13T08:34:52;12.37;;;6.40;;
297;SDS011;133;49.626;9.680;2023-10-13T08:37:18;9.67;;;6.10;;
297;SDS011;133;49.626;9.680;2023-10-13T08:39:54;9.03;;;6.20;;
297;SDS011;133;49.626;9.680;2023-10-13T08:45:08;9.13;;;6.60;;
297;SDS011;133;49.626;9.680;2023-10-13T08:47:51;7.80;;;6.07;;
297;SDS011;133;49.626;9.680;2023-10-13T08:50:52;9.57;;;6.77;;
297;SDS011;133;49.626;9.680;2023-10-13T08:53:24;9.50;;;6.90;;
297;SDS011;133;49.626;9.680;2023-10-13T08:56:09;7.53;;;5.83;;
297;SDS011;133;49.626;9.680;2023-10-13T08:58:39;13.97;;;6.87;;
297;SDS011;133;49.626;9.680;2023-10-13T09:04:05;7.57;;;6.47;;
297;SDS011;133;49.626;9.680;2023-10-13T09:06:44;12.00;;;6.17;;
297;SDS011;133;49.626;9.680;2023-10-13T09:09:29;11.30;;;6.13;;
297;SDS011;133;49.626;9.680;2023-10-13T09:12:11;7.60;;;5.73;;
297;SDS011;133;49.626;9.680;2023-10-13T09:14:41;7.20;;;5.60;;
297;SDS011;133;49.626;9.680;2023-10-13T09:17:09;9.60;;;6.37;;
297;SDS011;133;49.626;9.680;2023-10-13T09:22:24;10.80;;;6.30;;
297;SDS011;133;49.626;9.680;2023-10-13T09:24:58;8.57;;;6.30;;
297;SDS011;133;49.626;9.680;2023-10-13T09:27:25;7.77;;;5.60;;
297;SDS011;133;49.626;9.680;2023-10-13T09:30:03;7.40;;;5.90;;
297;SDS011;133;49.626;9.680;2023-10-13T09:32:35;10.03;;;6.43;;
297;SDS011;133;49.626;9.680;2023-10-13T09:35:27;10.47;;;6.17;;
297;SDS011;133;49.626;9.680;2023-10-13T09:37:56;12.10;;;6.30;;
297;SDS011;133;49.626;9.680;2023-10-13T09:40:24;10.40;;;6.07;;
297;SDS011;133;49.626;9.680;2023-10-13T09:42:51;13.90;;;6.53;;
297;SDS011;133;49.626;9.680;2023-10-13T09:45:17;12.00;;;6.13;;
297;SDS011;133;49.626;9.680;2023-10-13T09:47:44;10.53;;;6.57;;
297;SDS011;133;49.626;9.680;2023-10-13T09:50:17;13.27;;;6.40;;
297;SDS011;133;49.626;9.680;2023-10-13T09:52:49;10.00;;;5.63;;
297;SDS011;133;49.626;9.680;2023-10-13T09:55:24;8.90;;;6.23;;
297;SDS011;133;49.626;9.680;2023-10-13T09:58:05;13.90;;;5.70;;
297;SDS011;133;49.626;9.680;2023-10-13T10:00:36;11.77;;;5.43;;
297;SDS011;133;49.626;9.680;2023-10-13T10:03:13;8.30;;;6.00;;
297;SDS011;133;49.626;9.680;2023-10-13T10:06:03;11.23;;;5.70;;
297;SDS011;133;49.626;9.680;2023-10-13T10:08:30;7.77;;;5.40;;
297;SDS011;133;49.626;9.680;2023-10-13T10:11:00;13.83;;;5.63;;
297;SDS011;133;49.626;9.680;2023-10-13T10:16:36;12.03;;;5.50;;
297;SDS011;133;49.626;9.680;2023-10-13T10:19:15;9.27;;;5.80;;
297;SDS011;133;49.626;9.680;2023-10-13T10:21:43;8.30;;;5.80;;
297;SDS011;133;49.626;9.680;2023-10-13T10:24:15;9.77;;;5.80;;
297;SDS011;133;49.626;9.680;2023-10-13T10:26:54;9.40;;;5.83;;
297;SDS011;133;49.626;9.680;2023-10-13T10:29:20;8.97;;;6.27;;
297;SDS011;133;49.626;9.680;2023-10-13T10:31:45;10.33;;;5.83;;
297;SDS011;133;49.626;9.680;2023-10-13T10:34:14;13.10;;;5.70;;
297;SDS011;133;49.626;9.680;2023-10-13T10:36:45;9.60;;;5.50;;
297;SDS011;133;49.626;9.680;2023-10-13T10:39:12;13.73;;;6.03;;
297;SDS011;133;49.626;9.680;2023-10-13T10:41:38;11.67;;;5.63;;
297;SDS011;133;49.626;9.680;2023-10-13T10:44:19;12.77;;;5.50;;
297;SDS011;133;49.626;9.680;2023-10-13T10:47:07;10.07;;;6.37;;
297;SDS011;133;49.626;9.680;2023-10-13T10:49:37;10.77;;;5.67;;
297;SDS011;133;49.626;9.680;2023-10-13T10:52:03;9.40;;;5.47;;
297;SDS011;133;49.626;9.680;2023-10-13T10:54:39;13.53;;;6.20;;
297;SDS011;133;49.626;9.680;2023-10-13T10:57:09;9.70;;;5.43;;
297;SDS011;133;49.626;9.680;2023-10-13T10:59:41;11.13;;;5.60;;
297;SDS011;133;49.626;9.680;2023-10-13T11:02:06;9.70;;;6.30;;
297;SDS011;133;49.626;9.680;2023-10-13T11:04:33;11.03;;;5.87;;
297;SDS011;133;49.626;9.680;2023-10-13T11:07:05;8.43;;;5.73;;
297;SDS011;133;49.626;9.680;2023-10-13T11:09:32;12.03;;;5.87;;
297;SDS011;133;49.626;9.680;2023-10-13T11:14:44;9.50;;;5.70;;
297;SDS011;133;49.626;9.680;2023-10-13T11:17:22;7.60;;;5.50;;
297;SDS011;133;49.626;9.680;2023-10-13T11:20:07;10.70;;;6.30;;
297;SDS011;133;49.626;9.680;2023-10-13T11:22:48;12.47;;;5.57;;
297;SDS011;133;49.626;9.680;2023-10-13T11:25:25;7.30;;;5.07;;
297;SDS011;133;49.626;9.680;2023-10-13T11:28:20;10.53;;;6.67;;
297;SDS011;133;49.626;9.680;2023-10-13T11:30:48;9.60;;;6.23;;
297;SDS011;133;49.626;9.680;2023-10-13T11:33:19;11.00;;;5.80;;
297;SDS011;133;49.626;9.680;2023-10-13T11:35:54;7.80;;;5.43;;
297;SDS011;133;49.626;9.680;2023-10-13T11:38:22;8.20;;;5.60;;
297;SDS011;133;49.626;9.680;2023-10-13T11:40:54;6.53;;;5.17;;
297;SDS011;133;49.626;9.680;2023-10-13T11:43:50;10.67;;;5.83;;
297;SDS011;133;49.626;9.680;2023-10-13T11:46:21;11.63;;;5.87;;
297;SDS011;133;49.626;9.680;2023-10-13T11:49:00;12.50;;;5.97;;
297;SDS011;133;49.626;9.680;2023-10-13T11:51:42;6.63;;;5.30;;
297;SDS011;133;49.626;9.680;2023-10-13T11:54:15;10.10;;;5.70;;
297;SDS011;133;49.626;9.680;2023-10-13T11:56:43;8.87;;;5.70;;
297;SDS011;133;49.626;9.680;2023-10-13T11:59:12;11.20;;;5.77;;
297;SDS011;133;49.626;9.680;2023-10-13T12:01:44;7.60;;;5.83;;
297;SDS011;133;49.626;9.680;2023-10-13T12:04:32;7.60;;;5.67;;
297;SDS011;133;49.626;9.680;2023-10-13T12:07:05;8.43;;;5.30;;
297;SDS011;133;49.626;9.680;2023-10-13T12:09:43;10.37;;;6.27;;
297;SDS011;133;49.626;9.680;2023-10-13T12:12:19;9.50;;;6.20;;
297;SDS011;133;49.626;9.680;2023-10-13T12:14:45;7.13;;;5.33;;
297;SDS011;133;49.626;9.680;2023-10-13T12:19:54;7.90;;;5.60;;
297;SDS011;133;49.626;9.680;2023-10-13T12:22:20;8.50;;;5.30;;
297;SDS011;133;49.626;9.680;2023-10-13T12:25:01;16.53;;;5.90;;
297;SDS011;133;49.626;9.680;2023-10-13T12:27:30;12.13;;;6.70;;
297;SDS011;133;49.626;9.680;2023-10-13T12:30:11;8.30;;;5.83;;
297;SDS011;133;49.626;9.680;2023-10-13T12:32:39;8.10;;;5.30;;
297;SDS011;133;49.626;9.680;2023-10-13T12:35:10;12.40;;;6.00;;
297;SDS011;133;49.626;9.680;2023-10-13T12:37:35;8.10;;;5.37;;
297;SDS011;133;49.626;9.680;2023-10-13T12:40:07;7.80;;;5.50;;
297;SDS011;133;49.626;9.680;2023-10-13T12:42:52;8.83;;;5.70;;
297;SDS011;133;49.626;9.680;2023-10-13T12:45:40;8.70;;;5.40;;
297;SDS011;133;49.626;9.680;2023-10-13T12:48:28;8.50;;;5.60;;
297;SDS011;133;49.626;9.680;2023-10-13T12:51:13;7.93;;;5.73;;
297;SDS011;133;49.626;9.680;2023-10-13T12:53:57;8.80;;;5.80;;
297;SDS011;133;49.626;9.680;2023-10-13T12:56:29;6.80;;;5.53;;
297;SDS011;133;49.626;9.680;2023-10-13T12:58:55;7.27;;;5.47;;
297;SDS011;133;49.626;9.680;2023-10-13T13:01:22;8.30;;;5.40;;
297;SDS011;133;49.626;9.680;2023-10-13T13:03:58;11.70;;;5.37;;
297;SDS011;133;49.626;9.680;2023-10-13T13:06:25;7.83;;;5.70;;
297;SDS011;133;49.626;9.680;2023-10-13T13:08:52;8.73;;;5.60;;
297;SDS011;133;49.626;9.680;2023-10-13T13:11:26;14.97;;;7.13;;
297;SDS011;133;49.626;9.680;2023-10-13T13:13:55;10.67;;;5.30;;
297;SDS011;133;49.626;9.680;2023-10-13T13:16:20;9.60;;;5.50;;
297;SDS011;133;49.626;9.680;2023-10-13T13:18:52;8.13;;;5.60;;
297;SDS011;133;49.626;9.680;2023-10-13T13:21:20;6.40;;;4.80;;
297;SDS011;133;49.626;9.680;2023-10-13T13:23:49;11.73;;;5.60;;
297;SDS011;133;49.626;9.680;2023-10-13T13:26:15;15.40;;;5.77;;
297;SDS011;133;49.626;9.680;2023-10-13T13:28:44;13.20;;;6.20;;
297;SDS011;133;49.626;9.680;2023-10-13T13:31:10;5.73;;;5.37;;
297;SDS011;133;49.626;9.680;2023-10-13T13:33:37;7.67;;;5.43;;
297;SDS011;133;49.626;9.680;2023-10-13T13:36:07;9.60;;;5.27;;
297;SDS011;133;49.626;9.680;2023-10-13T13:38:38;8.47;;;5.47;;
297;SDS011;133;49.626;9.680;2023-10-13T13:41:05;10.07;;;5.10;;
297;SDS011;133;49.626;9.680;2023-10-13T13:43:41;6.30;;;5.10;;
297;SDS011;133;49.626;9.680;2023-10-13T13:46:23;8.80;;;5.87;;
297;SDS011;133;49.626;9.680;2023-10-13T13:48:52;12.97;;;5.30;;
297;SDS011;133;49.626;9.680;2023-10-13T13:51:23;11.80;;;5.57;;
297;SDS011;133;49.626;9.680;2023-10-13T13:53:52;9.53;;;5.00;;
297;SDS011;133;49.626;9.680;2023-10-13T13:56:19;8.27;;;4.90;;
297;SDS011;133;49.626;9.680;2023-10-13T13:58:45;9.23;;;4.83;;
297;SDS011;133;49.626;9.680;2023-10-13T14:01:12;6.53;;;5.60;;
297;SDS011;133;49.626;9.680;2023-10-13T14:03:40;13.13;;;5.30;;
297;SDS011;133;49.626;9.680;2023-10-13T14:06:15;9.17;;;5.10;;
297;SDS011;133;49.626;9.680;2023-10-13T14:08:44;6.80;;;5.30;;
297;SDS011;133;49.626;9.680;2023-10-13T14:11:13;8.37;;;4.60;;
297;SDS011;133;49.626;9.680;2023-10-13T14:14:01;9.20;;;5.10;;
297;SDS011;133;49.626;9.680;2023-10-13T14:16:29;12.23;;;5.77;;
297;SDS011;133;49.626;9.680;2023-10-13T14:18:55;7.33;;;5.67;;
297;SDS011;133;49.626;9.680;2023-10-13T14:21:20;11.83;;;6.00;;
297;SDS011;133;49.626;9.680;2023-10-13T14:23:49;9.17;;;5.17;;
297;SDS011;133;49.626;9.680;2023-10-13T14:26:19;12.30;;;5.00;;
297;SDS011;133;49.626;9.680;2023-10-13T14:28:49;11.23;;;5.10;;
297;SDS011;133;49.626;9.680;2023-10-13T14:31:31;10.67;;;5.50;;
297;SDS011;133;49.626;9.680;2023-10-13T14:33:57;8.00;;;4.83;;
297;SDS011;133;49.626;9.680;2023-10-13T14:36:23;10.50;;;5.10;;
297;SDS011;133;49.626;9.680;2023-10-13T14:38:53;11.67;;;4.93;;
297;SDS011;133;49.626;9.680;2023-10-13T14:41:22;6.63;;;4.70;;
297;SDS011;133;49.626;9.680;2023-10-13T14:43:48;8.50;;;5.00;;
297;SDS011;133;49.626;9.680;2023-10-13T14:46:14;11.47;;;4.90;;
297;SDS011;133;49.626;9.680;2023-10-13T14:48:41;11.10;;;5.60;;
297;SDS011;133;49.626;9.680;2023-10-13T14:51:13;9.87;;;5.23;;
297;SDS011;133;49.626;9.680;2023-10-13T14:53:39;10.53;;;5.23;;
297;SDS011;133;49.626;9.680;2023-10-13T14:56:08;8.80;;;4.97;;
297;SDS011;133;49.626;9.680;2023-10-13T14:58:37;13.80;;;5.30;;
297;SDS011;133;49.626;9.680;2023-10-13T15:01:13;11.73;;;5.33;;
297;SDS011;133;49.626;9.680;2023-10-13T15:06:16;10.00;;;5.17;;
297;SDS011;133;49.626;9.680;2023-10-13T15:08:43;9.97;;;5.03;;
297;SDS011;133;49.626;9.680;2023-10-13T15:11:11;8.33;;;4.90;;
297;SDS011;133;49.626;9.680;2023-10-13T15:13:43;8.57;;;4.70;;
297;SDS011;133;49.626;9.680;2023-10-13T15:16:27;9.13;;;4.77;;
297;SDS011;133;49.626;9.680;2023-10-13T15:18:53;9.03;;;5.10;;
297;SDS011;133;49.626;9.680;2023-10-13T15:21:20;6.00;;;4.30;;
297;SDS011;133;49.626;9.680;2023-10-13T15:23:53;8.43;;;4.80;;
297;SDS011;133;49.626;9.680;2023-10-13T15:26:24;12.53;;;5.73;;
297;SDS011;133;49.626;9.680;2023-10-13T15:28:50;8.20;;;4.63;;
297;SDS011;133;49.626;9.680;2023-10-13T15:31:20;8.27;;;5.63;;
297;SDS011;133;49.626;9.680;2023-10-13T15:33:58;13.23;;;6.10;;
297;SDS011;133;49.626;9.680;2023-10-13T15:36:26;28.53;;;10.50;;
297;SDS011;133;49.626;9.680;2023-10-13T15:38:51;16.27;;;6.10;;
297;SDS011;133;49.626;9.680;2023-10-13T15:41:21;8.63;;;5.80;;
297;SDS011;133;49.626;9.680;2023-10-13T15:43:51;11.70;;;5.60;;
297;SDS011;133;49.626;9.680;2023-10-13T15:46:17;10.33;;;5.33;;
297;SDS011;133;49.626;9.680;2023-10-13T15:48:46;8.97;;;5.00;;
297;SDS011;133;49.626;9.680;2023-10-13T15:51:15;9.27;;;5.40;;
297;SDS011;133;49.626;9.680;2023-10-13T15:53:41;11.17;;;5.90;;
297;SDS011;133;49.626;9.680;2023-10-13T15:56:09;16.00;;;6.83;;
297;SDS011;133;49.626;9.680;2023-10-13T15:58:39;10.80;;;5.43;;
297;SDS011;133;49.626;9.680;2023-10-13T16:01:09;6.23;;;4.87;;
297;SDS011;133;49.626;9.680;2023-10-13T16:03:45;8.77;;;5.00;;
297;SDS011;133;49.626;9.680;2023-10-13T16:06:16;8.07;;;4.73;;
297;SDS011;133;49.626;9.680;2023-10-13T16:08:42;9.10;;;6.37;;
297;SDS011;133;49.626;9.680;2023-10-13T16:11:09;8.50;;;5.13;;
297;SDS011;133;49.626;9.680;2023-10-13T16:13:42;10.10;;;4.83;;
297;SDS011;133;49.626;9.680;2023-10-13T16:16:18;10.40;;;4.90;;
297;SDS011;133;49.626;9.680;2023-10-13T16:18:47;10.63;;;4.90;;
297;SDS011;133;49.626;9.680;2023-10-13T16:21:14;6.93;;;4.77;;
297;SDS011;133;49.626;9.680;2023-10-13T16:23:40;11.93;;;4.67;;
297;SDS011;133;49.626;9.680;2023-10-13T16:26:07;9.33;;;4.80;;
297;SDS011;133;49.626;9.680;2023-10-13T16:28:36;13.50;;;5.30;;